Time,TemperatureF,DewpointF,PressureIn,WindDirection,WindDirectionDegrees,WindSpeedMPH,WindSpeedGustMPH,Humidity,HourlyPrecipIn,Conditions,Clouds,dailyrainin,SoftwareType,DateUTC
2013-02-26 00:10:00,18.4,2.0,29.89,WNW,286,3.0,-999.0,48,-99.99,,,0.02,weatherlink.com 1.10,2013-02-26 07:10:00,
2013-02-26 00:26:00,17.8,2.0,29.88,NNW,334,0.0,-999.0,50,-99.99,,,0.02,weatherlink.com 1.10,2013-02-26 07:26:00,
2013-02-26 00:41:00,17.0,2.0,29.87,North,360,4.0,-999.0,51,-99.99,,,0.02,weatherlink.com 1.10,2013-02-26 07:41:00,
2013-02-26 00:56:00,16.4,1.0,29.86,NNE,32,1.0,-999.0,51,-99.99,,,0.00,weatherlink.com 1.10,2013-02-26 07:56:00,
2013-02-26 01:11:00,15.9,1.0,29.85,NE,53,0.0,-999.0,52,-99.99,,,0.00,weatherlink.com 1.10,2013-02-26 08:11:00,
2013-02-26 01:26:00,15.5,2.0,29.84,WNW,303,0.0,-999.0,55,-99.99,,,0.00,weatherlink.com 1.10,2013-02-26 08:26:00,
2013-02-26 01:41:00,14.9,1.0,29.82,NW,325,1.0,-999.0,55,-99.99,,,0.00,weatherlink.com 1.10,2013-02-26 08:41:00,
2013-02-26 01:56:00,14.3,2.0,29.82,NNW,342,0.0,-999.0,57,-99.99,,,0.00,weatherlink.com 1.10,2013-02-26 08:56:00,
2013-02-26 02:11:00,13.7,2.0,29.81,NNW,343,0.0,-999.0,59,-99.99,,,0.00,weatherlink.com 1.10,2013-02-26 09:11:00,
2013-02-26 02:26:00,13.1,2.0,29.81,East,98,0.0,-999.0,61,-99.99,,,0.00,weatherlink.com 1.10,2013-02-26 09:26:00,
2013-02-26 02:41:00,12.7,2.0,29.82,NE,44,1.0,-999.0,63,-99.99,,,0.00,weatherlink.com 1.10,2013-02-26 09:41:00,
2013-02-26 02:56:00,12.9,2.0,29.80,West,273,7.0,-999.0,63,-99.99,,,0.00,weatherlink.com 1.10,2013-02-26 09:56:00,
2013-02-26 03:11:00,12.8,2.0,29.79,NW,322,2.0,-999.0,63,-99.99,,,0.00,weatherlink.com 1.10,2013-02-26 10:11:00,
2013-02-26 03:26:00,12.4,2.0,29.78,WNW,300,1.0,-999.0,64,-99.99,,,0.00,weatherlink.com 1.10,2013-02-26 10:26:00,
2013-02-26 03:41:00,11.5,2.0,29.77,West,279,10.0,-999.0,65,-99.99,,,0.00,weatherlink.com 1.10,2013-02-26 10:41:00,
2013-02-26 03:56:00,11.7,2.0,29.75,NW,311,2.0,-999.0,65,-99.99,,,0.00,weatherlink.com 1.10,2013-02-26 10:56:00,
2013-02-26 04:11:00,11.1,1.0,29.76,NNW,345,0.0,-999.0,65,-99.99,,,0.00,weatherlink.com 1.10,2013-02-26 11:11:00,
2013-02-26 04:25:00,10.2,1.0,29.75,NNW,342,0.0,-999.0,66,-99.99,,,0.00,weatherlink.com 1.10,2013-02-26 11:25:00,
2013-02-26 04:41:00,8.9,0.0,29.75,WNW,290,5.0,-999.0,68,-99.99,,,0.00,weatherlink.com 1.10,2013-02-26 11:41:00,
2013-02-26 04:56:00,8.8,1.0,29.74,WNW,299,9.0,-999.0,70,-99.99,,,0.00,weatherlink.com 1.10,2013-02-26 11:56:00,
2013-02-26 05:11:00,9.2,2.0,29.74,NW,307,1.0,-999.0,71,-99.99,,,0.00,weatherlink.com 1.10,2013-02-26 12:11:00,
2013-02-26 05:26:00,9.1,1.0,29.74,NNW,341,0.0,-999.0,70,-99.99,,,0.00,weatherlink.com 1.10,2013-02-26 12:26:00,
2013-02-26 05:41:00,8.9,1.0,29.73,NNW,346,1.0,-999.0,71,-99.99,,,0.00,weatherlink.com 1.10,2013-02-26 12:41:00,
2013-02-26 05:56:00,8.5,1.0,29.73,NNW,333,1.0,-999.0,71,-99.99,,,0.00,weatherlink.com 1.10,2013-02-26 12:56:00,
2013-02-26 06:11:00,8.6,1.0,29.72,NW,305,0.0,-999.0,70,-99.99,,,0.00,weatherlink.com 1.10,2013-02-26 13:11:00,
2013-02-26 06:26:00,8.8,1.0,29.72,NW,309,0.0,-999.0,70,-99.99,,,0.00,weatherlink.com 1.10,2013-02-26 13:26:00,
2013-02-26 06:41:00,8.6,1.0,29.71,NW,322,2.0,-999.0,70,-99.99,,,0.00,weatherlink.com 1.10,2013-02-26 13:41:00,
2013-02-26 06:56:00,8.8,1.0,29.71,NW,321,1.0,-999.0,70,-99.99,,,0.00,weatherlink.com 1.10,2013-02-26 13:56:00,
2013-02-26 07:11:00,8.9,1.0,29.70,WNW,295,3.0,-999.0,70,-99.99,,,0.00,weatherlink.com 1.10,2013-02-26 14:11:00,
2013-02-26 07:26:00,9.5,1.0,29.71,WNW,302,2.0,-999.0,69,-99.99,,,0.00,weatherlink.com 1.10,2013-02-26 14:26:00,
2013-02-26 07:41:00,9.9,1.0,29.72,NW,314,2.0,-999.0,68,-99.99,,,0.00,weatherlink.com 1.10,2013-02-26 14:41:00,
2013-02-26 07:56:00,10.7,1.0,29.72,NW,320,0.0,-999.0,66,-99.99,,,0.00,weatherlink.com 1.10,2013-02-26 14:56:00,
2013-02-26 08:11:00,11.1,1.0,29.72,WNW,291,3.0,-999.0,65,-99.99,,,0.00,weatherlink.com 1.10,2013-02-26 15:11:00,
2013-02-26 08:25:00,12.0,2.0,29.71,WNW,289,0.0,-999.0,63,-99.99,,,0.00,weatherlink.com 1.10,2013-02-26 15:25:00,
2013-02-26 08:41:00,12.7,1.0,29.71,WNW,288,2.0,-999.0,59,-99.99,,,0.00,weatherlink.com 1.10,2013-02-26 15:41:00,
2013-02-26 08:56:00,13.3,1.0,29.70,WNW,290,4.0,-999.0,57,-99.99,,,0.00,weatherlink.com 1.10,2013-02-26 15:56:00,
2013-02-26 09:11:00,14.2,1.0,29.69,NW,320,4.0,-999.0,55,-99.99,,,0.00,weatherlink.com 1.10,2013-02-26 16:11:00,
2013-02-26 09:26:00,14.8,1.0,29.69,NW,325,1.0,-999.0,54,-99.99,,,0.00,weatherlink.com 1.10,2013-02-26 16:26:00,
2013-02-26 09:41:00,14.5,2.0,29.69,NNE,14,0.0,-999.0,57,-99.99,,,0.00,weatherlink.com 1.10,2013-02-26 16:41:00,
2013-02-26 09:56:00,15.2,4.0,29.68,NE,43,0.0,-999.0,61,-99.99,,,0.00,weatherlink.com 1.10,2013-02-26 16:56:00,
2013-02-26 10:11:00,16.1,4.0,29.68,NNE,17,0.0,-999.0,58,-99.99,,,0.00,weatherlink.com 1.10,2013-02-26 17:11:00,
2013-02-26 10:26:00,17.2,4.0,29.68,North,10,6.0,-999.0,56,-99.99,,,0.00,weatherlink.com 1.10,2013-02-26 17:26:00,
2013-02-26 10:41:00,17.3,4.0,29.69,NE,44,5.0,-999.0,55,-99.99,,,0.00,weatherlink.com 1.10,2013-02-26 17:41:00,
2013-02-26 10:56:00,15.7,2.0,29.70,NNE,25,9.0,-999.0,56,-99.99,,,0.00,weatherlink.com 1.10,2013-02-26 17:56:00,
2013-02-26 11:11:00,14.5,2.0,29.71,NNE,12,0.0,-999.0,59,-99.99,,,0.00,weatherlink.com 1.10,2013-02-26 18:11:00,
2013-02-26 11:26:00,13.3,3.0,29.71,NNE,13,4.0,-999.0,63,-99.99,,,0.00,weatherlink.com 1.10,2013-02-26 18:26:00,
2013-02-26 11:41:00,12.5,3.0,29.71,North,351,5.0,-999.0,67,-99.99,,,0.00,weatherlink.com 1.10,2013-02-26 18:41:00,
2013-02-26 11:56:00,12.3,3.0,29.71,North,9,3.0,-999.0,67,-99.99,,,0.00,weatherlink.com 1.10,2013-02-26 18:56:00,
2013-02-26 12:11:00,12.7,4.0,29.72,NE,54,3.0,-999.0,67,-99.99,,,0.00,weatherlink.com 1.10,2013-02-26 19:11:00,
2013-02-26 12:26:00,12.8,4.0,29.73,NNE,22,4.0,-999.0,68,-99.99,,,0.00,weatherlink.com 1.10,2013-02-26 19:26:00,
2013-02-26 12:41:00,13.7,4.0,29.73,NE,36,1.0,-999.0,64,-99.99,,,0.00,weatherlink.com 1.10,2013-02-26 19:41:00,
2013-02-26 12:56:00,15.4,3.0,29.73,NW,320,0.0,-999.0,58,-99.99,,,0.00,weatherlink.com 1.10,2013-02-26 19:56:00,
2013-02-26 13:11:00,16.6,4.0,29.73,NNW,337,1.0,-999.0,58,-99.99,,,0.00,weatherlink.com 1.10,2013-02-26 20:11:00,
2013-02-26 13:26:00,18.3,3.0,29.74,WNW,287,6.0,-999.0,52,-99.99,,,0.00,weatherlink.com 1.10,2013-02-26 20:26:00,
2013-02-26 13:41:00,19.2,3.0,29.74,NW,306,1.0,-999.0,50,-99.99,,,0.00,weatherlink.com 1.10,2013-02-26 20:41:00,
2013-02-26 13:56:00,18.2,3.0,29.75,WNW,287,14.0,-999.0,51,-99.99,,,0.00,weatherlink.com 1.10,2013-02-26 20:56:00,
2013-02-26 14:11:00,17.5,2.0,29.76,NNW,327,6.0,-999.0,50,-99.99,,,0.00,weatherlink.com 1.10,2013-02-26 21:11:00,
2013-02-26 14:26:00,16.9,1.0,29.77,West,273,3.0,-999.0,49,-99.99,,,0.00,weatherlink.com 1.10,2013-02-26 21:26:00,
2013-02-26 14:41:00,15.5,1.0,29.77,WNW,284,18.0,-999.0,53,-99.99,,,0.00,weatherlink.com 1.10,2013-02-26 21:41:00,
2013-02-26 14:56:00,14.0,0.0,29.79,NNE,12,15.0,-999.0,53,-99.99,,,0.00,weatherlink.com 1.10,2013-02-26 21:56:00,
2013-02-26 15:11:00,14.1,0.0,29.80,WNW,296,15.0,-999.0,54,-99.99,,,0.00,weatherlink.com 1.10,2013-02-26 22:11:00,
2013-02-26 15:26:00,13.0,0.0,29.81,NW,307,17.0,-999.0,56,-99.99,,,0.00,weatherlink.com 1.10,2013-02-26 22:26:00,
2013-02-26 15:41:00,12.3,0.0,29.82,WNW,284,14.0,-999.0,57,-99.99,,,0.00,weatherlink.com 1.10,2013-02-26 22:41:00,
2013-02-26 15:55:00,11.9,-1.0,29.83,NW,315,12.0,-999.0,57,-99.99,,,0.00,weatherlink.com 1.10,2013-02-26 22:55:00,
2013-02-26 16:11:00,11.8,-1.0,29.85,West,274,9.0,-999.0,57,-99.99,,,0.00,weatherlink.com 1.10,2013-02-26 23:11:00,
2013-02-26 16:25:00,11.0,-2.0,29.86,West,265,16.0,-999.0,57,-99.99,,,0.00,weatherlink.com 1.10,2013-02-26 23:25:00,
2013-02-26 16:41:00,9.9,-2.0,29.88,WNW,302,14.0,-999.0,59,-99.99,,,0.00,weatherlink.com 1.10,2013-02-26 23:41:00,
2013-02-26 16:56:00,9.4,-2.0,29.89,WNW,300,3.0,-999.0,60,-99.99,,,0.00,weatherlink.com 1.10,2013-02-26 23:56:00,
2013-02-26 17:11:00,9.0,-2.0,29.90,NW,321,5.0,-999.0,61,-99.99,,,0.00,weatherlink.com 1.10,2013-02-27 00:11:00,
2013-02-26 17:26:00,8.7,-2.0,29.91,NW,309,18.0,-999.0,62,-99.99,,,0.00,weatherlink.com 1.10,2013-02-27 00:26:00,
2013-02-26 17:41:00,8.1,-2.0,29.93,West,273,7.0,-999.0,63,-99.99,,,0.00,weatherlink.com 1.10,2013-02-27 00:41:00,
2013-02-26 17:56:00,7.7,-2.0,29.93,NW,310,17.0,-999.0,64,-99.99,,,0.00,weatherlink.com 1.10,2013-02-27 00:56:00,
2013-02-26 18:11:00,7.2,-3.0,29.95,NW,313,3.0,-999.0,64,-99.99,,,0.00,weatherlink.com 1.10,2013-02-27 01:11:00,
2013-02-26 18:26:00,7.1,-3.0,29.97,WSW,254,11.0,-999.0,63,-99.99,,,0.00,weatherlink.com 1.10,2013-02-27 01:26:00,
2013-02-26 18:41:00,6.9,-3.0,29.97,NW,314,11.0,-999.0,63,-99.99,,,0.00,weatherlink.com 1.10,2013-02-27 01:41:00,
2013-02-26 18:56:00,6.8,-3.0,29.99,NW,317,6.0,-999.0,63,-99.99,,,0.00,weatherlink.com 1.10,2013-02-27 01:56:00,
2013-02-26 19:10:00,6.6,-3.0,30.00,North,355,3.0,-999.0,64,-99.99,,,0.00,weatherlink.com 1.10,2013-02-27 02:10:00,
2013-02-26 19:25:00,6.6,-3.0,30.01,WNW,299,16.0,-999.0,64,-99.99,,,0.00,weatherlink.com 1.10,2013-02-27 02:25:00,
2013-02-26 19:40:00,6.3,-3.0,30.02,NNW,335,7.0,-999.0,66,-99.99,,,0.00,weatherlink.com 1.10,2013-02-27 02:40:00,
2013-02-26 19:55:00,6.1,-2.0,30.02,NW,324,12.0,-999.0,68,-99.99,,,0.00,weatherlink.com 1.10,2013-02-27 02:55:00,
2013-02-26 20:10:00,6.0,-3.0,30.04,NW,309,12.0,-999.0,66,-99.99,,,0.00,weatherlink.com 1.10,2013-02-27 03:10:00,
2013-02-26 20:25:00,6.1,-4.0,30.05,WNW,287,15.0,-999.0,64,-99.99,,,0.00,weatherlink.com 1.10,2013-02-27 03:25:00,
2013-02-26 20:40:00,5.9,-4.0,30.06,WNW,292,16.0,-999.0,65,-99.99,,,0.00,weatherlink.com 1.10,2013-02-27 03:40:00,
2013-02-26 20:55:00,5.5,-4.0,30.07,NW,315,7.0,-999.0,66,-99.99,,,0.00,weatherlink.com 1.10,2013-02-27 03:55:00,
2013-02-26 21:10:00,5.1,-3.0,30.08,WNW,302,16.0,-999.0,68,-99.99,,,0.00,weatherlink.com 1.10,2013-02-27 04:10:00,
2013-02-26 21:26:00,4.9,-4.0,30.09,WNW,289,5.0,-999.0,68,-99.99,,,0.00,weatherlink.com 1.10,2013-02-27 04:26:00,
2013-02-26 21:40:00,4.8,-4.0,30.10,WNW,293,16.0,-999.0,67,-99.99,,,0.00,weatherlink.com 1.10,2013-02-27 04:40:00,
2013-02-26 21:55:00,4.7,-4.0,30.11,NW,321,7.0,-999.0,67,-99.99,,,0.00,weatherlink.com 1.10,2013-02-27 04:55:00,
2013-02-26 22:10:00,4.5,-4.0,30.11,NW,310,5.0,-999.0,67,-99.99,,,0.00,weatherlink.com 1.10,2013-02-27 05:10:00,
2013-02-26 22:25:00,4.6,-5.0,30.11,NW,323,2.0,-999.0,65,-99.99,,,0.00,weatherlink.com 1.10,2013-02-27 05:25:00,
2013-02-26 22:40:00,4.7,-5.0,30.12,West,279,4.0,-999.0,64,-99.99,,,0.00,weatherlink.com 1.10,2013-02-27 05:40:00,
2013-02-26 22:56:00,4.6,-5.0,30.13,WNW,293,17.0,-999.0,64,-99.99,,,0.00,weatherlink.com 1.10,2013-02-27 05:56:00,
2013-02-26 23:10:00,4.5,-6.0,30.14,West,277,6.0,-999.0,63,-99.99,,,0.00,weatherlink.com 1.10,2013-02-27 06:10:00,
2013-02-26 23:26:00,4.3,-5.0,30.15,NW,307,5.0,-999.0,65,-99.99,,,0.00,weatherlink.com 1.10,2013-02-27 06:26:00,
2013-02-26 23:41:00,4.0,-5.0,30.16,WNW,286,11.0,-999.0,65,-99.99,,,0.00,weatherlink.com 1.10,2013-02-27 06:41:00,
2013-02-26 23:55:00,3.3,-6.0,30.16,WNW,284,14.0,-999.0,66,-99.99,,,0.00,weatherlink.com 1.10,2013-02-27 06:55:00,